Time;durP1;ratioP1;P1;durP2;ratioP2;P2;SDS_P1;SDS_P2;PMS_P1;PMS_P2;Temp;Humidity;BMP_temperature;BMP_pressure;BME280_temperature;BME280_humidity;BME280_pressure;Samples;Min_cycle;Max_cycle;Signal;HPM_P1;HPM_P2
2023/03/31 00:02:21;;;;;;;5.65;5.07;;;6.60;99.90;;;;;;5058626;28;20204;-75
2023/03/31 00:04:51;;;;;;;9.70;5.47;;;6.60;99.90;;;;;;5056782;28;20179;-75
2023/03/31 00:07:20;;;;;;;7.80;4.97;;;6.60;99.90;;;;;;5041280;28;20187;-75
2023/03/31 00:09:47;;;;;;;5.85;5.20;;;6.70;99.90;;;;;;5057629;28;20191;-75
2023/03/31 00:12:14;;;;;;;10.73;4.57;;;6.70;99.90;;;;;;5064718;28;20620;-76
2023/03/31 00:14:41;;;;;;;5.78;4.63;;;6.70;99.90;;;;;;5055196;28;20183;-75
2023/03/31 00:17:07;;;;;;;4.90;4.45;;;6.70;99.90;;;;;;5058012;28;20553;-75
2023/03/31 00:19:33;;;;;;;4.70;4.05;;;6.70;99.90;;;;;;5038935;28;20692;-75
2023/03/31 00:22:04;;;;;;;6.55;4.55;;;6.80;99.90;;;;;;5059770;28;20242;-75
2023/03/31 00:24:31;;;;;;;6.45;4.47;;;6.80;99.90;;;;;;5058651;28;20164;-74
2023/03/31 00:26:58;;;;;;;4.95;4.45;;;6.70;99.90;;;;;;5060415;28;20273;-73
2023/03/31 00:29:25;;;;;;;5.80;4.40;;;6.70;99.90;;;;;;5060282;28;20168;-73
2023/03/31 00:31:50;;;;;;;5.50;4.28;;;6.70;99.90;;;;;;5062506;28;20785;-74
2023/03/31 00:34:16;;;;;;;9.00;5.22;;;6.70;99.90;;;;;;5056706;28;20318;-74
2023/03/31 00:36:47;;;;;;;5.13;4.63;;;6.60;99.90;;;;;;5056123;28;20644;-74
2023/03/31 00:39:16;;;;;;;5.50;4.35;;;6.60;99.90;;;;;;5055989;28;20592;-75
2023/03/31 00:41:42;;;;;;;6.70;4.60;;;6.60;99.90;;;;;;5042824;28;20195;-74
2023/03/31 00:44:08;;;;;;;5.85;4.97;;;6.50;99.90;;;;;;5034440;28;20229;-74
2023/03/31 00:46:36;;;;;;;7.47;4.80;;;6.40;99.90;;;;;;5067081;28;20263;-75
2023/03/31 00:49:02;;;;;;;6.57;5.10;;;6.40;99.90;;;;;;5059206;28;20168;-74
2023/03/31 00:51:31;;;;;;;6.10;5.43;;;6.30;99.90;;;;;;5057865;28;20180;-74
2023/03/31 00:54:03;;;;;;;7.00;5.30;;;6.40;99.90;;;;;;5064508;28;20199;-75
2023/03/31 00:56:34;;;;;;;5.03;4.43;;;6.40;99.90;;;;;;5061911;28;20187;-75
2023/03/31 00:59:02;;;;;;;4.95;4.47;;;6.40;99.90;;;;;;5058214;28;20183;-75
2023/03/31 01:01:29;;;;;;;7.03;4.88;;;6.40;99.90;;;;;;5058269;28;20211;-75
2023/03/31 01:03:56;;;;;;;5.47;4.90;;;6.40;99.90;;;;;;5063692;28;20172;-75
2023/03/31 01:06:24;;;;;;;5.05;4.43;;;6.40;99.90;;;;;;5053775;28;20172;-74
2023/03/31 01:08:50;;;;;;;9.95;4.72;;;6.40;99.90;;;;;;5048231;28;20183;-74
2023/03/31 01:11:21;;;;;;;5.55;4.72;;;6.30;99.90;;;;;;5061140;28;20530;-75
2023/03/31 01:13:49;;;;;;;6.65;4.65;;;6.30;99.90;;;;;;5046070;28;20204;-75
2023/03/31 01:16:16;;;;;;;6.43;4.85;;;6.30;99.90;;;;;;5038399;28;20183;-75
2023/03/31 01:18:45;;;;;;;8.65;4.60;;;6.30;99.90;;;;;;5057486;28;20180;-75
2023/03/31 01:21:13;;;;;;;7.55;4.60;;;6.20;99.90;;;;;;5044140;28;20227;-74
2023/03/31 01:23:57;;;;;;;10.27;5.22;;;6.20;99.90;;;;;;5054727;28;20199;-75
2023/03/31 01:26:47;;;;;;;5.40;5.00;;;6.10;99.90;;;;;;5054907;28;20258;-73
2023/03/31 01:29:50;;;;;;;5.80;5.15;;;6.00;99.90;;;;;;5060900;28;20211;-73
2023/03/31 01:32:52;;;;;;;9.15;5.45;;;6.00;99.90;;;;;;5050788;28;20196;-73
2023/03/31 01:35:20;;;;;;;7.35;4.80;;;6.00;99.90;;;;;;5056901;28;20179;-72
2023/03/31 01:38:01;;;;;;;7.50;5.00;;;6.00;99.90;;;;;;5041295;28;20171;-73
2023/03/31 01:40:54;;;;;;;6.10;4.85;;;6.00;99.90;;;;;;5059882;28;20200;-73
2023/03/31 01:43:28;;;;;;;7.82;4.38;;;6.00;99.90;;;;;;5050687;28;20199;-73
2023/03/31 01:45:56;;;;;;;6.63;5.50;;;6.00;99.90;;;;;;5052748;28;20175;-72
2023/03/31 01:48:42;;;;;;;6.07;5.38;;;5.90;99.90;;;;;;5052181;28;20286;-72
2023/03/31 01:51:26;;;;;;;5.60;5.10;;;6.00;99.90;;;;;;5055634;28;20180;-72
2023/03/31 01:54:02;;;;;;;5.13;4.70;;;5.90;99.90;;;;;;5052779;28;20688;-72
2023/03/31 01:56:33;;;;;;;5.97;5.03;;;5.90;99.90;;;;;;5061946;28;20180;-73
2023/03/31 01:59:12;;;;;;;5.47;4.70;;;6.00;99.90;;;;;;5051809;28;20620;-73
2023/03/31 02:01:55;;;;;;;5.32;4.82;;;6.10;99.90;;;;;;5058002;28;20174;-72
2023/03/31 02:04:35;;;;;;;5.32;4.82;;;6.20;99.90;;;;;;5049412;28;20171;-73
2023/03/31 02:07:13;;;;;;;5.88;5.28;;;6.20;99.90;;;;;;5055748;28;20192;-73
2023/03/31 02:09:42;;;;;;;8.05;5.35;;;6.30;99.90;;;;;;5049892;28;20180;-73
2023/03/31 02:12:10;;;;;;;5.55;4.97;;;6.30;99.90;;;;;;5056198;28;20223;-73
2023/03/31 02:14:40;;;;;;;7.80;4.78;;;6.30;99.90;;;;;;5062999;28;20175;-73
2023/03/31 02:17:12;;;;;;;6.75;4.75;;;6.30;99.90;;;;;;5049593;28;20191;-74
2023/03/31 02:19:43;;;;;;;6.32;4.68;;;6.30;99.90;;;;;;5055810;28;20207;-74
2023/03/31 02:22:11;;;;;;;5.32;4.93;;;6.40;99.90;;;;;;5056555;28;20215;-74
2023/03/31 02:24:39;;;;;;;6.03;4.85;;;6.30;99.90;;;;;;5054158;28;20286;-74
2023/03/31 02:27:13;;;;;;;5.18;4.68;;;6.30;99.90;;;;;;5038629;28;20187;-74
2023/03/31 02:29:39;;;;;;;5.00;4.60;;;6.20;99.90;;;;;;5050134;28;20553;-74
2023/03/31 02:32:31;;;;;;;6.50;5.68;;;6.20;99.90;;;;;;5054171;28;20196;-74
2023/03/31 02:34:57;;;;;;;5.38;4.97;;;6.20;99.90;;;;;;5038933;28;20212;-74
2023/03/31 02:37:24;;;;;;;5.20;4.80;;;6.40;99.90;;;;;;5060991;28;20180;-74
2023/03/31 02:39:53;;;;;;;6.07;5.53;;;6.40;99.90;;;;;;5057223;28;20911;-74
2023/03/31 02:42:19;;;;;;;7.22;5.07;;;6.40;99.90;;;;;;5059854;28;20283;-74
2023/03/31 02:44:45;;;;;;;6.22;5.30;;;6.40;99.90;;;;;;5059023;28;20179;-74
2023/03/31 02:47:13;;;;;;;6.78;5.05;;;6.50;99.90;;;;;;5058877;28;20199;-74
2023/03/31 02:49:50;;;;;;;5.55;4.63;;;6.50;99.90;;;;;;5034343;28;20753;-74
2023/03/31 02:52:45;;;;;;;5.55;5.05;;;6.60;99.90;;;;;;5054025;28;20211;-74
2023/03/31 02:55:17;;;;;;;6.72;4.82;;;6.70;99.90;;;;;;5054724;28;20191;-74
2023/03/31 02:58:26;;;;;;;6.70;5.72;;;6.70;99.90;;;;;;5053648;28;20191;-74
2023/03/31 03:01:12;;;;;;;5.82;5.32;;;6.70;99.90;;;;;;5053110;28;20711;-74
2023/03/31 03:03:56;;;;;;;8.38;5.60;;;6.80;99.90;;;;;;5003857;28;20306;-74
2023/03/31 03:06:43;;;;;;;6.45;5.72;;;6.70;99.90;;;;;;5059318;28;20176;-75
2023/03/31 03:09:34;;;;;;;5.45;4.88;;;6.70;99.90;;;;;;5041195;28;20643;-74
2023/03/31 03:12:19;;;;;;;5.38;4.78;;;6.80;99.90;;;;;;5051265;28;20199;-76
2023/03/31 03:15:06;;;;;;;6.00;4.63;;;6.80;99.90;;;;;;5050171;28;20217;-74
2023/03/31 03:17:39;;;;;;;5.80;5.22;;;6.90;99.90;;;;;;5053626;28;20234;-74
2023/03/31 03:20:08;;;;;;;5.10;4.57;;;6.90;99.90;;;;;;5049401;28;20258;-75
2023/03/31 03:22:37;;;;;;;7.22;5.43;;;6.90;99.90;;;;;;5062959;28;20226;-75
2023/03/31 03:25:08;;;;;;;5.78;5.13;;;6.90;99.90;;;;;;5039501;28;20234;-75
2023/03/31 03:27:34;;;;;;;5.57;5.13;;;6.90;99.90;;;;;;5042110;28;20550;-75
2023/03/31 03:30:05;;;;;;;9.15;5.65;;;6.90;99.90;;;;;;5057999;28;20176;-74
2023/03/31 03:32:32;;;;;;;7.20;5.70;;;6.80;99.90;;;;;;5051060;28;20191;-74
2023/03/31 03:35:01;;;;;;;8.05;5.80;;;6.90;99.90;;;;;;5057561;28;20180;-74
2023/03/31 03:37:27;;;;;;;6.30;5.70;;;6.90;99.90;;;;;;5052550;28;20193;-74
2023/03/31 03:39:53;;;;;;;6.85;6.05;;;6.90;99.90;;;;;;5052422;28;20235;-74
2023/03/31 03:42:19;;;;;;;6.57;5.85;;;6.90;99.90;;;;;;5059059;28;20636;-73
2023/03/31 03:44:44;;;;;;;6.53;5.80;;;6.80;99.90;;;;;;5062199;28;20176;-73
2023/03/31 03:47:10;;;;;;;8.10;6.13;;;6.80;99.90;;;;;;5054231;28;20665;-74
2023/03/31 03:49:36;;;;;;;7.03;5.75;;;6.80;99.90;;;;;;5059290;28;20179;-74
2023/03/31 03:52:01;;;;;;;7.43;5.70;;;6.80;99.90;;;;;;5061366;28;20746;-74
2023/03/31 03:54:27;;;;;;;7.13;5.57;;;6.90;99.90;;;;;;5058308;28;20195;-73
2023/03/31 03:56:52;;;;;;;7.07;6.07;;;7.00;99.90;;;;;;5061982;28;20274;-74
2023/03/31 03:59:18;;;;;;;6.40;5.82;;;6.90;99.90;;;;;;5051941;28;20202;-74
2023/03/31 04:01:44;;;;;;;6.75;6.15;;;6.90;99.90;;;;;;5064351;28;20248;-74
2023/03/31 04:04:09;;;;;;;7.68;5.97;;;6.90;99.90;;;;;;5066661;28;20184;-74
2023/03/31 04:06:35;;;;;;;7.53;6.22;;;6.90;99.90;;;;;;5061011;28;20179;-74
2023/03/31 04:09:01;;;;;;;6.65;6.00;;;7.00;99.90;;;;;;5063530;28;20184;-75
2023/03/31 04:11:27;;;;;;;6.60;5.65;;;7.00;99.90;;;;;;5059977;28;20184;-74
2023/03/31 04:13:53;;;;;;;6.47;5.60;;;7.10;99.90;;;;;;5062934;28;20179;-75
2023/03/31 04:16:19;;;;;;;8.05;6.30;;;7.10;99.90;;;;;;5050770;28;20267;-75
2023/03/31 04:18:44;;;;;;;8.98;6.10;;;7.10;99.90;;;;;;5060621;28;20186;-74
2023/03/31 04:21:14;;;;;;;7.38;6.75;;;7.20;99.90;;;;;;5056981;28;20212;-74
2023/03/31 04:23:46;;;;;;;7.18;6.47;;;7.20;99.90;;;;;;5046322;28;20192;-74
2023/03/31 04:26:14;;;;;;;8.20;7.40;;;7.10;99.90;;;;;;5067591;28;20489;-74
2023/03/31 04:28:41;;;;;;;7.82;7.03;;;7.10;99.90;;;;;;5043337;28;20647;-74
2023/03/31 04:31:09;;;;;;;9.32;7.47;;;7.10;99.90;;;;;;5058673;28;20183;-75
2023/03/31 04:33:37;;;;;;;7.00;6.30;;;7.00;99.90;;;;;;5052965;28;20212;-75
2023/03/31 04:36:05;;;;;;;7.65;6.95;;;7.00;99.90;;;;;;5064447;28;20274;-74
2023/03/31 04:38:34;;;;;;;8.95;8.05;;;7.00;99.90;;;;;;5062498;28;20184;-74
2023/03/31 04:41:00;;;;;;;8.50;7.65;;;6.90;99.90;;;;;;5061123;28;20204;-74
2023/03/31 04:43:25;;;;;;;7.50;6.90;;;7.00;99.90;;;;;;5057731;28;20675;-74
2023/03/31 04:45:51;;;;;;;8.50;7.78;;;7.00;99.90;;;;;;5055596;28;20175;-73
2023/03/31 04:48:17;;;;;;;7.55;6.95;;;6.90;99.90;;;;;;5046678;28;20264;-73
2023/03/31 04:50:42;;;;;;;8.30;7.50;;;6.90;99.90;;;;;;5052748;28;20188;-74
2023/03/31 04:53:08;;;;;;;7.85;7.13;;;7.00;99.90;;;;;;5048493;28;20207;-73
2023/03/31 04:55:34;;;;;;;10.20;8.30;;;7.00;99.90;;;;;;5057254;28;20248;-74
2023/03/31 04:57:59;;;;;;;8.95;8.15;;;7.00;99.90;;;;;;5050350;28;20685;-74
2023/03/31 05:00:25;;;;;;;8.23;7.53;;;6.90;99.90;;;;;;5059981;28;20207;-73
2023/03/31 05:02:51;;;;;;;7.78;7.07;;;7.00;99.90;;;;;;5058752;28;20237;-74
2023/03/31 05:05:17;;;;;;;9.90;8.15;;;7.00;99.90;;;;;;5061059;28;20636;-74
2023/03/31 05:07:43;;;;;;;8.43;7.72;;;7.10;99.90;;;;;;5060106;28;20265;-74
2023/03/31 05:10:08;;;;;;;13.52;8.65;;;7.00;99.90;;;;;;5058934;28;20195;-74
2023/03/31 05:12:38;;;;;;;9.10;8.25;;;7.10;99.90;;;;;;5057596;28;20689;-74
2023/03/31 05:15:05;;;;;;;11.20;9.35;;;7.10;99.90;;;;;;5060549;28;20262;-74
2023/03/31 05:17:32;;;;;;;9.23;8.32;;;7.10;99.90;;;;;;5053428;28;20234;-73
2023/03/31 05:19:57;;;;;;;11.57;9.50;;;7.10;99.90;;;;;;5053861;28;20811;-73
2023/03/31 05:22:23;;;;;;;8.90;8.02;;;7.10;99.90;;;;;;5064158;28;20274;-75
2023/03/31 05:24:49;;;;;;;13.20;9.25;;;7.00;99.90;;;;;;5060064;28;20679;-73
2023/03/31 05:27:15;;;;;;;10.32;9.32;;;7.10;99.90;;;;;;5057402;28;20188;-73
2023/03/31 05:29:40;;;;;;;11.63;10.20;;;7.10;99.90;;;;;;5032236;28;20187;-75
2023/03/31 05:32:06;;;;;;;11.75;10.55;;;7.10;99.90;;;;;;5052162;28;20216;-75
2023/03/31 05:34:32;;;;;;;10.80;9.77;;;7.00;99.90;;;;;;5062680;28;20180;-74
2023/03/31 05:36:57;;;;;;;10.80;9.65;;;7.10;99.90;;;;;;5056010;28;20185;-75
2023/03/31 05:39:23;;;;;;;10.20;8.95;;;7.10;99.90;;;;;;5054451;28;20215;-75
2023/03/31 05:41:49;;;;;;;10.65;9.63;;;7.10;99.90;;;;;;5041754;28;20634;-74
2023/03/31 05:44:15;;;;;;;10.23;9.20;;;7.10;99.90;;;;;;5056227;28;20716;-74
2023/03/31 05:46:41;;;;;;;11.45;9.80;;;7.10;99.90;;;;;;5050113;28;20187;-74
2023/03/31 05:49:07;;;;;;;16.15;10.98;;;7.20;99.90;;;;;;5057965;28;20208;-75
2023/03/31 05:51:33;;;;;;;11.82;9.13;;;7.20;99.90;;;;;;5059301;28;20219;-74
2023/03/31 05:53:58;;;;;;;13.02;10.43;;;7.20;99.90;;;;;;5039190;28;20188;-74
2023/03/31 05:56:26;;;;;;;12.38;9.90;;;7.30;99.90;;;;;;5050514;28;20249;-74
2023/03/31 05:58:52;;;;;;;11.27;10.07;;;7.20;99.90;;;;;;5044260;28;20179;-76
2023/03/31 06:01:22;;;;;;;9.75;8.73;;;7.20;99.90;;;;;;5054104;28;20207;-77
2023/03/31 06:03:48;;;;;;;16.35;9.52;;;7.10;99.90;;;;;;5057350;28;20257;-75
2023/03/31 06:06:15;;;;;;;10.27;8.25;;;7.10;99.90;;;;;;5047823;28;20551;-77
2023/03/31 06:08:42;;;;;;;9.70;8.10;;;7.20;99.90;;;;;;5054538;28;20229;-76
2023/03/31 06:11:09;;;;;;;10.48;7.85;;;7.30;99.90;;;;;;5061166;28;20172;-75
2023/03/31 06:13:36;;;;;;;9.07;7.85;;;7.30;99.90;;;;;;5058447;28;20289;-73
2023/03/31 06:16:02;;;;;;;9.63;8.55;;;7.50;99.90;;;;;;5054958;28;20187;-75
2023/03/31 06:18:30;;;;;;;9.30;8.35;;;7.50;99.90;;;;;;5054091;28;20633;-74
2023/03/31 06:20:57;;;;;;;11.45;9.07;;;7.50;99.90;;;;;;5042174;28;20264;-75
2023/03/31 06:23:23;;;;;;;9.82;8.75;;;7.40;99.90;;;;;;5057193;28;20753;-75
2023/03/31 06:25:48;;;;;;;10.13;8.27;;;7.40;99.90;;;;;;5057547;28;20564;-75
2023/03/31 06:28:14;;;;;;;8.80;7.85;;;7.50;99.90;;;;;;5062607;28;20171;-74
2023/03/31 06:30:40;;;;;;;11.85;8.65;;;7.50;99.90;;;;;;5053270;28;20180;-74
2023/03/31 06:33:06;;;;;;;8.63;7.82;;;7.50;99.90;;;;;;5035842;28;20211;-74
2023/03/31 06:35:32;;;;;;;12.55;9.50;;;7.50;99.90;;;;;;5038553;28;20176;-75
2023/03/31 06:37:57;;;;;;;11.93;8.73;;;7.60;99.90;;;;;;5055500;28;20179;-75
2023/03/31 06:40:23;;;;;;;8.77;7.85;;;7.70;99.90;;;;;;5044246;28;20548;-74
2023/03/31 06:42:49;;;;;;;8.63;7.55;;;7.70;99.90;;;;;;5055706;28;20210;-74
2023/03/31 06:45:14;;;;;;;9.05;7.15;;;7.90;99.90;;;;;;5043075;28;20568;-75
2023/03/31 06:47:40;;;;;;;9.27;8.00;;;8.10;99.90;;;;;;5056968;28;20206;-73
2023/03/31 06:50:08;;;;;;;11.10;7.70;;;8.20;99.90;;;;;;5049990;28;20188;-76
2023/03/31 06:52:34;;;;;;;12.05;6.88;;;8.20;99.90;;;;;;5056233;28;20213;-74
2023/03/31 06:55:00;;;;;;;8.73;6.78;;;8.30;99.90;;;;;;5063287;28;20597;-74
2023/03/31 06:57:26;;;;;;;9.45;7.05;;;8.20;99.90;;;;;;5051060;28;20181;-75
2023/03/31 06:59:52;;;;;;;7.43;6.70;;;8.20;99.90;;;;;;5051845;28;20254;-74
2023/03/31 07:02:18;;;;;;;9.45;6.57;;;8.30;99.90;;;;;;5057481;28;20207;-74
2023/03/31 07:04:44;;;;;;;8.55;6.85;;;8.50;99.90;;;;;;5057401;28;20187;-76
2023/03/31 07:07:09;;;;;;;8.38;6.88;;;8.60;99.90;;;;;;5050428;28;20670;-76
2023/03/31 07:09:35;;;;;;;6.82;5.95;;;8.70;99.90;;;;;;5054798;28;20183;-79
2023/03/31 07:12:04;;;;;;;8.02;7.10;;;8.70;99.90;;;;;;5062679;28;20204;-79
2023/03/31 07:14:30;;;;;;;10.07;6.55;;;8.80;99.90;;;;;;5055115;28;20266;-78
2023/03/31 07:16:56;;;;;;;8.50;6.82;;;8.80;99.90;;;;;;5059364;28;20215;-76
2023/03/31 07:19:21;;;;;;;8.23;7.30;;;8.80;99.90;;;;;;5058532;28;20214;-78
2023/03/31 07:21:49;;;;;;;7.68;6.22;;;8.80;99.90;;;;;;5049222;28;20250;-78
2023/03/31 07:24:15;;;;;;;7.10;6.13;;;8.80;99.90;;;;;;5051190;28;20180;-78
2023/03/31 07:26:40;;;;;;;7.78;6.53;;;8.80;99.90;;;;;;5062302;28;20706;-78
2023/03/31 07:29:06;;;;;;;9.25;5.85;;;8.70;99.90;;;;;;5055305;28;20179;-78
2023/03/31 07:31:32;;;;;;;8.30;6.25;;;8.60;99.90;;;;;;5053962;28;20179;-75
2023/03/31 07:33:57;;;;;;;7.05;6.03;;;8.50;99.90;;;;;;5057615;28;20262;-75
2023/03/31 07:36:23;;;;;;;10.00;6.95;;;8.50;99.90;;;;;;5053619;28;20241;-74
2023/03/31 07:38:49;;;;;;;9.43;7.68;;;8.50;99.90;;;;;;5056633;28;20221;-75
2023/03/31 07:41:17;;;;;;;9.77;6.68;;;8.40;99.90;;;;;;5058191;28;20227;-75
2023/03/31 07:43:44;;;;;;;9.50;7.00;;;8.40;99.90;;;;;;5053583;28;20210;-75
2023/03/31 07:46:21;;;;;;;8.63;7.00;;;8.30;99.90;;;;;;5055766;28;20255;-75
2023/03/31 07:48:48;;;;;;;8.50;7.53;;;8.20;99.90;;;;;;5028252;28;20187;-75
2023/03/31 07:51:19;;;;;;;9.15;7.07;;;8.20;99.90;;;;;;5038167;28;20180;-74
2023/03/31 07:53:48;;;;;;;8.25;7.45;;;8.10;99.90;;;;;;5056638;28;20245;-74
2023/03/31 07:56:15;;;;;;;8.85;7.60;;;8.10;99.90;;;;;;5043218;28;20176;-74
2023/03/31 07:58:41;;;;;;;12.02;9.18;;;8.10;99.90;;;;;;5047430;28;20321;-74
2023/03/31 08:01:07;;;;;;;9.93;8.65;;;8.30;99.90;;;;;;5053460;28;20257;-74
2023/03/31 08:03:33;;;;;;;11.18;8.43;;;8.50;99.90;;;;;;5053205;28;20364;-75
2023/03/31 08:05:59;;;;;;;10.45;8.60;;;8.50;99.90;;;;;;5056403;28;20177;-75
2023/03/31 08:08:25;;;;;;;9.93;7.72;;;8.50;99.90;;;;;;5055194;28;20258;-76
2023/03/31 08:10:51;;;;;;;9.43;8.40;;;8.60;99.90;;;;;;5047350;28;20188;-75
2023/03/31 08:13:16;;;;;;;10.88;8.18;;;8.60;99.90;;;;;;5063936;28;20230;-75
2023/03/31 08:15:42;;;;;;;10.40;8.07;;;8.60;99.90;;;;;;5052436;28;20651;-75
2023/03/31 08:18:08;;;;;;;8.75;7.95;;;8.50;99.90;;;;;;5062081;28;20191;-75
2023/03/31 08:20:33;;;;;;;8.60;7.70;;;8.50;99.90;;;;;;5050825;28;20247;-75
2023/03/31 08:22:59;;;;;;;9.05;8.07;;;8.50;99.90;;;;;;5055941;28;20601;-75
2023/03/31 08:25:24;;;;;;;9.05;8.18;;;8.60;99.90;;;;;;5044010;28;20179;-75
2023/03/31 08:27:50;;;;;;;8.60;7.85;;;8.60;99.90;;;;;;5054216;28;20242;-74
2023/03/31 08:30:17;;;;;;;10.13;9.10;;;8.60;99.90;;;;;;5059905;28;20238;-75
2023/03/31 08:32:43;;;;;;;8.70;8.00;;;8.50;99.90;;;;;;5038290;28;20262;-75
2023/03/31 08:35:09;;;;;;;9.45;8.65;;;8.60;99.90;;;;;;5054897;28;20584;-76
2023/03/31 08:37:36;;;;;;;9.38;8.15;;;8.60;99.90;;;;;;5052959;28;20666;-76
2023/03/31 08:40:04;;;;;;;14.38;9.35;;;8.70;99.90;;;;;;5038921;28;20200;-77
2023/03/31 08:42:42;;;;;;;10.60;9.52;;;8.70;99.90;;;;;;5058434;28;20227;-75
2023/03/31 08:45:21;;;;;;;10.95;9.20;;;8.70;99.90;;;;;;5052992;28;20184;-75
2023/03/31 08:47:51;;;;;;;8.82;7.93;;;8.80;99.90;;;;;;5059893;28;20194;-75
2023/03/31 08:50:22;;;;;;;9.68;8.77;;;8.80;99.90;;;;;;5037432;28;20519;-76
2023/03/31 08:52:56;;;;;;;11.00;7.57;;;8.90;99.90;;;;;;5037069;28;20218;-75
2023/03/31 08:55:28;;;;;;;10.02;8.43;;;8.80;99.90;;;;;;5047245;28;20191;-74
2023/03/31 08:58:06;;;;;;;9.40;8.60;;;8.80;99.90;;;;;;5056116;28;20268;-74
2023/03/31 09:00:48;;;;;;;8.80;8.00;;;8.80;99.90;;;;;;5061896;28;20282;-73
2023/03/31 09:03:25;;;;;;;10.25;8.65;;;8.80;99.90;;;;;;5044119;28;20195;-74
2023/03/31 09:06:01;;;;;;;9.50;8.68;;;8.70;99.90;;;;;;5061904;28;20186;-75
2023/03/31 09:08:41;;;;;;;8.98;8.18;;;8.60;99.90;;;;;;5056080;28;20180;-74
2023/03/31 09:11:18;;;;;;;8.95;8.02;;;8.60;99.90;;;;;;5051314;28;20563;-76
2023/03/31 09:14:08;;;;;;;10.00;9.00;;;8.60;99.90;;;;;;5036817;28;20195;-74
2023/03/31 09:16:59;;;;;;;8.95;8.05;;;8.60;99.90;;;;;;5056270;28;20187;-74
2023/03/31 09:19:40;;;;;;;11.55;8.70;;;8.70;99.90;;;;;;5050631;28;20184;-74
2023/03/31 09:22:16;;;;;;;11.23;10.13;;;8.80;99.90;;;;;;5055681;28;20345;-76
2023/03/31 09:24:53;;;;;;;15.20;10.43;;;8.80;99.90;;;;;;5043305;28;20186;-75
2023/03/31 09:27:19;;;;;;;16.30;10.95;;;8.80;99.90;;;;;;5033886;28;20238;-75
2023/03/31 09:30:17;;;;;;;10.82;9.82;;;8.60;99.90;;;;;;5043421;28;20632;-74
2023/03/31 09:32:44;;;;;;;10.52;9.57;;;8.90;99.90;;;;;;5041093;28;20218;-78
2023/03/31 09:35:24;;;;;;;9.68;8.68;;;9.20;99.90;;;;;;5039818;28;20179;-77
2023/03/31 09:37:51;;;;;;;11.43;8.43;;;9.50;99.90;;;;;;5052124;28;20180;-77
2023/03/31 09:40:22;;;;;;;8.07;7.32;;;9.80;99.90;;;;;;5051064;28;20742;-77
2023/03/31 09:43:03;;;;;;;11.07;8.55;;;9.80;99.90;;;;;;5051483;28;20235;-77
2023/03/31 09:45:30;;;;;;;8.20;7.50;;;10.00;99.90;;;;;;5042230;28;20179;-77
2023/03/31 09:48:10;;;;;;;9.98;8.45;;;10.00;99.90;;;;;;5051899;28;20184;-79
2023/03/31 09:50:49;;;;;;;9.75;8.35;;;10.00;99.90;;;;;;5050343;28;20218;-78
2023/03/31 09:53:38;;;;;;;9.02;8.13;;;10.00;99.90;;;;;;5045498;28;20207;-78
2023/03/31 09:56:10;;;;;;;8.50;7.80;;;10.10;99.90;;;;;;5058594;28;20187;-78
2023/03/31 09:58:47;;;;;;;7.97;7.25;;;10.30;99.90;;;;;;5037042;28;20183;-78
2023/03/31 10:01:14;;;;;;;7.68;6.97;;;10.70;99.90;;;;;;5056624;28;20601;-78
2023/03/31 10:03:54;;;;;;;7.72;6.28;;;11.10;99.90;;;;;;5047144;28;20191;-78
2023/03/31 10:06:24;;;;;;;7.85;6.57;;;11.40;99.90;;;;;;5053991;28;20164;-78
2023/03/31 10:09:02;;;;;;;9.52;6.15;;;12.00;99.90;;;;;;5057219;28;20179;-78
2023/03/31 10:11:28;;;;;;;6.75;5.97;;;12.70;99.90;;;;;;5061010;28;20183;-78
2023/03/31 10:14:10;;;;;;;12.75;6.55;;;13.20;99.90;;;;;;5059090;28;20204;-79
2023/03/31 10:16:55;;;;;;;7.25;6.55;;;13.70;99.90;;;;;;5058281;28;20178;-78
2023/03/31 10:19:27;;;;;;;7.25;6.18;;;14.60;99.90;;;;;;5054296;28;20199;-79
2023/03/31 10:21:58;;;;;;;6.18;5.70;;;15.70;99.90;;;;;;5063308;28;20203;-79
2023/03/31 10:24:26;;;;;;;6.15;4.65;;;17.40;99.90;;;;;;5038073;28;20179;-80
2023/03/31 10:26:54;;;;;;;6.13;5.07;;;20.00;99.90;;;;;;5056676;28;20184;-79
2023/03/31 10:29:30;;;;;;;5.40;4.88;;;22.30;99.90;;;;;;5053421;28;20187;-79
2023/03/31 10:32:02;;;;;;;4.95;4.53;;;24.00;99.90;;;;;;5051314;28;20345;-80
2023/03/31 10:34:29;;;;;;;4.22;3.53;;;26.20;99.90;;;;;;5059599;28;20362;-78
2023/03/31 10:36:55;;;;;;;3.88;3.58;;;27.30;98.50;;;;;;5055658;28;20202;-77
2023/03/31 10:39:29;;;;;;;4.00;3.70;;;26.90;96.90;;;;;;5050714;28;20216;-77
2023/03/31 10:41:55;;;;;;;3.42;3.13;;;26.80;95.60;;;;;;5048372;28;20204;-77
2023/03/31 10:44:29;;;;;;;2.97;2.67;;;27.50;91.00;;;;;;5054101;28;20195;-77
2023/03/31 10:47:14;;;;;;;2.85;2.55;;;28.50;90.30;;;;;;5060292;28;20206;-77
2023/03/31 10:49:43;;;;;;;3.45;2.65;;;29.20;88.50;;;;;;5034581;28;20181;-77
2023/03/31 10:52:17;;;;;;;5.55;2.78;;;27.90;87.80;;;;;;5052829;28;20360;-78
2023/03/31 10:54:57;;;;;;;3.00;2.80;;;25.80;92.30;;;;;;5052672;28;20639;-78
2023/03/31 10:57:52;;;;;;;3.03;2.55;;;24.40;90.40;;;;;;5028918;28;20448;-79
2023/03/31 11:00:32;;;;;;;3.67;2.22;;;22.90;93.70;;;;;;5050728;28;20203;-79
2023/03/31 11:03:07;;;;;;;3.13;2.40;;;22.00;93.40;;;;;;5032908;28;20677;-80
2023/03/31 11:06:11;;;;;;;4.95;2.15;;;21.20;95.10;;;;;;5054172;28;20199;-83
2023/03/31 11:08:54;;;;;;;2.08;1.88;;;20.20;97.10;;;;;;5045452;28;20259;-82
2023/03/31 11:11:47;;;;;;;2.60;2.22;;;19.40;98.70;;;;;;5049452;28;20185;-79
2023/03/31 11:14:39;;;;;;;3.15;2.85;;;18.80;99.90;;;;;;5036062;28;20198;-79
2023/03/31 11:17:23;;;;;;;3.03;2.35;;;18.30;99.90;;;;;;5032767;28;20242;-79
2023/03/31 11:20:08;;;;;;;4.78;3.00;;;17.80;99.90;;;;;;5054974;28;20232;-79
2023/03/31 11:22:43;;;;;;;4.90;2.60;;;17.70;99.90;;;;;;5034872;28;20234;-83
2023/03/31 11:25:11;;;;;;;2.50;2.08;;;18.80;99.90;;;;;;5024710;28;20190;-79
2023/03/31 11:27:49;;;;;;;3.05;2.58;;;19.80;99.90;;;;;;5052014;28;20179;-79
2023/03/31 11:30:32;;;;;;;3.10;2.40;;;20.90;99.90;;;;;;5046445;28;20203;-79
2023/03/31 11:33:20;;;;;;;4.38;2.17;;;23.00;96.70;;;;;;5033459;28;20764;-79
2023/03/31 11:36:10;;;;;;;1.42;1.33;;;25.50;91.50;;;;;;5048006;28;20279;-77
2023/03/31 11:38:58;;;;;;;2.85;2.00;;;27.40;80.30;;;;;;5050954;28;20179;-82
2023/03/31 11:41:45;;;;;;;2.88;1.52;;;29.00;72.30;;;;;;5046237;28;20578;-79
2023/03/31 11:44:14;;;;;;;2.67;1.33;;;29.50;67.10;;;;;;5048671;28;20205;-78
2023/03/31 11:47:06;;;;;;;2.83;1.58;;;29.50;66.60;;;;;;5055678;28;20178;-79
2023/03/31 11:49:38;;;;;;;2.17;1.35;;;29.80;65.40;;;;;;5050165;28;20206;-78
2023/03/31 11:52:14;;;;;;;1.23;1.13;;;29.90;62.00;;;;;;5028072;28;20200;-78
2023/03/31 11:55:01;;;;;;;1.58;1.48;;;29.70;60.80;;;;;;5053998;28;20706;-78
2023/03/31 11:57:49;;;;;;;3.42;1.50;;;29.10;60.00;;;;;;5044370;28;20780;-78
2023/03/31 12:00:15;;;;;;;0.90;0.90;;;28.10;60.60;;;;;;5057423;28;20286;-78
2023/03/31 12:03:25;;;;;;;1.42;1.30;;;26.70;65.00;;;;;;5058537;28;20213;-80
2023/03/31 12:05:57;;;;;;;1.83;1.27;;;25.40;69.80;;;;;;5048226;28;20196;-78
2023/03/31 12:08:40;;;;;;;1.67;1.58;;;24.00;73.90;;;;;;5056109;28;20203;-78
2023/03/31 12:11:12;;;;;;;2.25;1.38;;;24.50;72.20;;;;;;5050393;28;20223;-77
2023/03/31 12:13:46;;;;;;;1.35;1.17;;;24.90;70.60;;;;;;5056140;28;20199;-78
2023/03/31 12:16:19;;;;;;;1.70;1.60;;;25.50;69.40;;;;;;5051072;28;20561;-79
2023/03/31 12:18:55;;;;;;;1.50;1.20;;;26.40;65.00;;;;;;5033724;28;20606;-78
2023/03/31 12:21:22;;;;;;;0.90;0.80;;;27.30;62.80;;;;;;5054903;28;20303;-78
2023/03/31 12:23:48;;;;;;;1.25;1.08;;;26.50;63.80;;;;;;5057916;28;20670;-78
2023/03/31 12:26:21;;;;;;;0.80;0.75;;;26.30;64.90;;;;;;5059292;28;20227;-83
2023/03/31 12:28:52;;;;;;;0.90;0.85;;;26.50;62.40;;;;;;5058591;28;20199;-78
2023/03/31 12:31:22;;;;;;;1.55;1.15;;;26.60;60.60;;;;;;5055676;28;20225;-79
2023/03/31 12:33:55;;;;;;;1.10;1.10;;;27.00;60.20;;;;;;5053997;28;20736;-79
2023/03/31 12:36:53;;;;;;;1.45;1.30;;;27.40;60.30;;;;;;5056836;28;20191;-76
2023/03/31 12:39:49;;;;;;;1.35;1.10;;;28.00;59.50;;;;;;5045790;28;20195;-76
2023/03/31 12:42:45;;;;;;;1.50;0.68;;;28.80;55.90;;;;;;5054346;28;20249;-77
2023/03/31 12:45:30;;;;;;;1.52;1.20;;;29.70;55.60;;;;;;5056841;28;20191;-77
2023/03/31 12:48:30;;;;;;;3.97;1.35;;;30.30;54.10;;;;;;5054306;28;20262;-76
2023/03/31 12:51:21;;;;;;;2.30;1.17;;;31.10;53.20;;;;;;5066276;28;20179;-77
2023/03/31 12:54:32;;;;;;;1.05;0.95;;;30.40;53.10;;;;;;5057245;28;20409;-78
2023/03/31 12:57:00;;;;;;;5.85;2.17;;;27.50;61.10;;;;;;5045631;28;20191;-77
2023/03/31 12:59:36;;;;;;;2.05;1.42;;;23.80;78.00;;;;;;5056098;28;20183;-80
2023/03/31 13:02:14;;;;;;;2.42;1.17;;;19.70;94.80;;;;;;5060501;28;20338;-80
2023/03/31 13:04:40;;;;;;;3.30;1.40;;;17.00;99.90;;;;;;5056477;28;20171;-81
2023/03/31 13:07:19;;;;;;;4.43;1.73;;;15.40;99.90;;;;;;5057282;28;20187;-80
2023/03/31 13:09:50;;;;;;;4.90;1.25;;;14.60;99.90;;;;;;5042721;28;20207;-80
2023/03/31 13:12:19;;;;;;;2.30;1.67;;;14.30;99.90;;;;;;5039726;28;20210;-80
2023/03/31 13:14:50;;;;;;;2.63;1.33;;;15.00;99.90;;;;;;5051134;28;20230;-82
2023/03/31 13:17:23;;;;;;;2.47;1.17;;;16.40;99.90;;;;;;5066806;28;20176;-81
2023/03/31 13:19:50;;;;;;;2.50;0.93;;;18.10;99.90;;;;;;5041568;28;20200;-80